Time;durP1;ratioP1;P1;durP2;ratioP2;P2;SDS_P1;SDS_P2;PMS_P1;PMS_P2;Temp;Humidity;BMP_temperature;BMP_pressure;BME280_temperature;BME280_humidity;BME280_pressure;Samples;Min_cycle;Max_cycle;Signal;HPM_P1;HPM_P2
2023/09/11 00:00:10;;;;;;;0.10;0.10;;;;;;;17.24;71.59;97580.94;5026431;28;20042;-72
2023/09/11 00:02:38;;;;;;;0.15;0.15;;;;;;;17.23;71.42;97576.63;5028556;28;20042;-72
2023/09/11 00:05:06;;;;;;;0.10;0.10;;;;;;;17.02;72.28;97574.56;5019885;28;20095;-72
2023/09/11 00:07:34;;;;;;;0.10;0.10;;;;;;;16.91;72.87;97570.81;5017704;28;20084;-72
2023/09/11 00:10:02;;;;;;;0.20;0.20;;;;;;;16.87;72.96;97573.16;5030303;28;20045;-73
2023/09/11 00:12:30;;;;;;;0.13;0.13;;;;;;;16.75;73.39;97572.31;5031951;28;20069;-71
2023/09/11 00:14:59;;;;;;;0.13;0.13;;;;;;;16.66;73.83;97570.22;5024157;28;20049;-72
2023/09/11 00:17:26;;;;;;;0.17;0.17;;;;;;;16.75;73.22;97574.19;5023840;28;20579;-71
2023/09/11 00:19:54;;;;;;;0.10;0.10;;;;;;;16.74;73.06;97564.47;5028083;28;20076;-71
2023/09/11 00:22:22;;;;;;;0.03;0.03;;;;;;;16.78;73.02;97555.69;5019255;28;20037;-72
2023/09/11 00:24:50;;;;;;;0.10;0.10;;;;;;;16.78;72.49;97563.78;5022718;28;20038;-71
2023/09/11 00:27:17;;;;;;;0.13;0.13;;;;;;;16.66;73.35;97564.81;5028990;28;20448;-72
2023/09/11 00:29:45;;;;;;;0.30;0.30;;;;;;;16.62;73.33;97558.25;5032723;28;20042;-72
2023/09/11 00:32:14;;;;;;;0.10;0.10;;;;;;;16.49;73.80;97556.59;5021390;28;20123;-72
2023/09/11 00:34:42;;;;;;;0.05;0.05;;;;;;;16.33;74.25;97554.56;5016278;28;20501;-74
2023/09/11 00:37:09;;;;;;;0.15;0.15;;;;;;;16.11;74.99;97551.59;5027264;28;20085;-72
2023/09/11 00:39:37;;;;;;;0.10;0.10;;;;;;;16.06;75.41;97548.78;5015896;28;20042;-72
2023/09/11 00:42:05;;;;;;;0.10;0.10;;;;;;;16.03;75.57;97549.25;5022307;28;20087;-72
2023/09/11 00:44:33;;;;;;;0.20;0.20;;;;;;;16.18;74.91;97546.94;5024208;28;20117;-73
2023/09/11 00:47:01;;;;;;;0.20;0.20;;;;;;;16.34;74.14;97545.44;5022459;28;20037;-74
2023/09/11 00:49:31;;;;;;;0.28;0.28;;;;;;;16.36;74.02;97554.09;5017027;28;20497;-72
2023/09/11 00:52:00;;;;;;;0.13;0.13;;;;;;;16.24;74.44;97548.69;5016809;28;20069;-72
2023/09/11 00:54:28;;;;;;;0.10;0.10;;;;;;;16.33;74.06;97539.22;5025543;28;20037;-72
2023/09/11 00:56:56;;;;;;;0.17;0.17;;;;;;;16.31;74.34;97541.31;5032374;28;20061;-72
2023/09/11 00:59:24;;;;;;;0.10;0.10;;;;;;;16.40;74.00;97539.13;5023515;28;20073;-72
2023/09/11 01:01:52;;;;;;;0.17;0.17;;;;;;;16.55;73.46;97536.78;5027505;28;20052;-71
2023/09/11 01:04:20;;;;;;;0.10;0.10;;;;;;;16.41;73.96;97538.88;5021828;28;20034;-72
2023/09/11 01:06:49;;;;;;;0.03;0.03;;;;;;;16.47;73.53;97534.44;5024123;28;20140;-72
2023/09/11 01:09:17;;;;;;;0.13;0.13;;;;;;;16.35;73.83;97534.44;5020331;28;20073;-71
2023/09/11 01:11:44;;;;;;;0.13;0.13;;;;;;;16.31;74.07;97524.34;5016762;28;20042;-72
2023/09/11 01:14:12;;;;;;;0.10;0.10;;;;;;;16.30;73.89;97523.50;5022361;28;20489;-72
2023/09/11 01:16:45;;;;;;;0.10;0.10;;;;;;;16.17;74.33;97522.94;5014212;28;20045;-72
2023/09/11 01:19:20;;;;;;;0.08;0.08;;;;;;;16.13;74.30;97520.69;5018286;28;20579;-71
2023/09/11 01:21:58;;;;;;;0.10;0.10;;;;;;;16.18;73.78;97519.19;5020439;28;20501;-71
2023/09/11 01:24:47;;;;;;;;;;;;;;;16.16;73.72;97532.88;5020589;28;20034;-72
2023/09/11 01:27:34;;;;;;;0.10;0.10;;;;;;;16.01;74.21;97522.53;5018114;28;19921;-72
2023/09/11 01:30:05;;;;;;;0.10;0.10;;;;;;;15.89;74.64;97521.69;5013208;28;20060;-72
2023/09/11 01:32:33;;;;;;;0.22;0.22;;;;;;;15.90;74.81;97519.81;5020181;28;20072;-72
2023/09/11 01:35:01;;;;;;;0.15;0.15;;;;;;;15.90;74.64;97517.13;5013646;28;20072;-72
2023/09/11 01:37:31;;;;;;;0.13;0.13;;;;;;;15.88;74.73;97519.25;5024326;28;20049;-72
2023/09/11 01:39:59;;;;;;;0.03;0.03;;;;;;;16.01;73.98;97524.41;5013428;28;20509;-72
2023/09/11 01:42:32;;;;;;;0.28;0.28;;;;;;;15.90;74.61;97522.50;5021785;28;20041;-72
2023/09/11 01:45:02;;;;;;;0.13;0.13;;;;;;;15.97;74.19;97523.25;5011241;28;20044;-72
2023/09/11 01:47:31;;;;;;;0.15;0.15;;;;;;;15.90;74.74;97517.94;5017564;28;20050;-71
2023/09/11 01:49:59;;;;;;;0.10;0.10;;;;;;;15.70;75.60;97522.81;5017669;28;20108;-71
2023/09/11 01:52:27;;;;;;;0.10;0.10;;;;;;;15.68;75.67;97517.63;5016920;28;20051;-71
2023/09/11 01:54:57;;;;;;;0.10;0.10;;;;;;;15.62;75.73;97517.75;5026642;28;20050;-72
2023/09/11 01:57:26;;;;;;;0.13;0.13;;;;;;;15.70;75.54;97518.25;5036779;23;20116;-74
2023/09/11 01:59:54;;;;;;;0.20;0.20;;;;;;;15.73;75.52;97515.09;5010680;28;20456;-74
2023/09/11 02:02:23;;;;;;;0.13;0.13;;;;;;;15.83;75.10;97517.22;5007676;28;20081;-74
2023/09/11 02:04:51;;;;;;;0.10;0.10;;;;;;;15.69;75.12;97505.84;5011170;28;20038;-73
2023/09/11 02:07:19;;;;;;;0.13;0.13;;;;;;;15.57;75.49;97506.88;5010532;28;20076;-73
2023/09/11 02:09:46;;;;;;;0.45;0.20;;;;;;;15.64;75.54;97504.88;5011742;28;20041;-73
2023/09/11 02:12:14;;;;;;;0.22;0.22;;;;;;;15.65;75.25;97503.84;5004174;28;20121;-73
2023/09/11 02:14:42;;;;;;;0.13;0.13;;;;;;;15.50;76.19;97506.09;5007083;28;20037;-73
2023/09/11 02:17:09;;;;;;;0.13;0.13;;;;;;;15.70;75.35;97507.47;5007756;28;20452;-73
2023/09/11 02:19:38;;;;;;;0.20;0.20;;;;;;;15.72;75.47;97509.94;5010366;28;20045;-73
2023/09/11 02:22:06;;;;;;;0.22;0.22;;;;;;;15.67;75.90;97504.44;5008633;28;20121;-73
2023/09/11 02:24:34;;;;;;;0.10;0.10;;;;;;;15.70;75.67;97495.88;5009874;28;20485;-74
2023/09/11 02:27:02;;;;;;;0.10;0.10;;;;;;;15.75;75.51;97498.72;5010110;28;20680;-73
2023/09/11 02:29:29;;;;;;;0.05;0.05;;;;;;;15.87;74.93;97499.59;5011425;28;20067;-72
2023/09/11 02:31:57;;;;;;;0.40;0.10;;;;;;;15.76;75.61;97495.81;5009568;28;20132;-73
2023/09/11 02:34:24;;;;;;;0.10;0.10;;;;;;;15.85;74.98;97503.53;5004908;28;20500;-74
2023/09/11 02:36:53;;;;;;;0.13;0.13;;;;;;;15.72;75.77;97494.63;5011353;28;20469;-74
2023/09/11 02:39:21;;;;;;;0.05;0.05;;;;;;;15.79;75.35;97492.63;5010116;28;20132;-74
2023/09/11 02:41:49;;;;;;;0.20;0.20;;;;;;;15.68;75.78;97493.41;5009822;28;20056;-73
2023/09/11 02:44:16;;;;;;;0.03;0.03;;;;;;;15.83;75.59;97492.19;5010972;28;20034;-73
2023/09/11 02:46:44;;;;;;;0.25;0.25;;;;;;;15.79;75.52;97497.19;5009611;28;20053;-73
2023/09/11 02:49:12;;;;;;;0.22;0.22;;;;;;;15.70;75.81;97496.72;5010123;28;20141;-73
2023/09/11 02:51:40;;;;;;;0.22;0.22;;;;;;;15.79;75.77;97489.94;5011413;28;20042;-73
2023/09/11 02:54:09;;;;;;;0.13;0.13;;;;;;;15.63;76.18;97489.78;5025246;28;20054;-73
2023/09/11 02:56:38;;;;;;;0.10;0.10;;;;;;;15.52;76.25;97487.84;5011299;28;20420;-73
2023/09/11 02:59:06;;;;;;;0.22;0.22;;;;;;;15.56;76.01;97487.22;5006650;28;20050;-73
2023/09/11 03:01:34;;;;;;;0.20;0.20;;;;;;;15.56;75.77;97484.53;5007300;28;20045;-72
2023/09/11 03:04:03;;;;;;;0.13;0.13;;;;;;;15.68;75.68;97492.59;5009036;28;20046;-73
2023/09/11 03:06:31;;;;;;;0.20;0.20;;;;;;;15.68;75.95;97488.03;5007439;28;20062;-74
2023/09/11 03:08:58;;;;;;;0.20;0.20;;;;;;;15.65;76.14;97479.63;5011230;28;20104;-73
2023/09/11 03:11:28;;;;;;;0.10;0.10;;;;;;;15.68;76.15;97485.34;5011109;28;20038;-74
2023/09/11 03:13:55;;;;;;;0.10;0.10;;;;;;;15.77;75.44;97486.69;5009447;28;20072;-74
2023/09/11 03:16:23;;;;;;;0.10;0.10;;;;;;;15.63;75.96;97479.84;5009167;28;20042;-73
2023/09/11 03:18:55;;;;;;;;;;;;;;;15.58;75.80;97484.25;5010529;28;20050;-73
2023/09/11 03:21:24;;;;;;;0.20;0.20;;;;;;;15.54;75.91;97481.22;5009508;28;19922;-74
2023/09/11 03:23:52;;;;;;;0.13;0.13;;;;;;;15.45;76.20;97479.06;5007228;28;20050;-73
2023/09/11 03:26:20;;;;;;;0.22;0.22;;;;;;;15.42;76.28;97475.78;4999611;28;20069;-73
2023/09/11 03:28:53;;;;;;;0.20;0.20;;;;;;;15.42;76.66;97478.47;5009536;28;20045;-74
2023/09/11 03:31:25;;;;;;;0.03;0.03;;;;;;;15.45;77.13;97481.75;5010007;28;20069;-73
2023/09/11 03:33:54;;;;;;;0.10;0.10;;;;;;;15.43;76.70;97473.91;5018389;28;20128;-74
2023/09/11 03:36:22;;;;;;;0.10;0.10;;;;;;;15.55;76.23;97471.28;5009650;28;20049;-73
2023/09/11 03:38:50;;;;;;;0.13;0.13;;;;;;;15.32;76.89;97474.69;5008920;28;20042;-73
2023/09/11 03:41:18;;;;;;;0.13;0.13;;;;;;;15.33;77.22;97470.94;5010491;28;20503;-73
2023/09/11 03:43:46;;;;;;;0.22;0.22;;;;;;;15.30;77.34;97468.69;5011949;28;20133;-73
2023/09/11 03:46:15;;;;;;;0.13;0.13;;;;;;;15.41;76.60;97465.22;5009723;28;20042;-73
2023/09/11 03:48:47;;;;;;;0.10;0.10;;;;;;;15.39;76.38;97476.22;5009400;28;20045;-74
2023/09/11 03:51:17;;;;;;;0.22;0.22;;;;;;;15.34;76.63;97473.41;5009715;28;20053;-74
2023/09/11 03:53:45;;;;;;;0.13;0.13;;;;;;;15.38;76.59;97473.75;5009025;28;20066;-74
2023/09/11 03:56:18;;;;;;;0.13;0.13;;;;;;;15.42;76.52;97472.25;5010827;28;20038;-74
2023/09/11 03:58:46;;;;;;;0.10;0.10;;;;;;;15.35;76.83;97469.69;5014829;28;20421;-73
2023/09/11 04:01:18;;;;;;;0.20;0.20;;;;;;;15.28;76.62;97470.78;5011293;28;20054;-73
2023/09/11 04:03:46;;;;;;;0.20;0.20;;;;;;;15.19;77.56;97466.78;5012056;28;20092;-73
2023/09/11 04:06:14;;;;;;;0.10;0.10;;;;;;;15.32;76.33;97471.97;5013163;28;20125;-74
2023/09/11 04:08:41;;;;;;;0.20;0.20;;;;;;;15.38;76.22;97469.19;5013368;28;20509;-74
2023/09/11 04:11:09;;;;;;;0.13;0.13;;;;;;;15.43;75.91;97469.34;5007674;28;20136;-74
2023/09/11 04:13:37;;;;;;;0.20;0.20;;;;;;;15.38;76.31;97463.00;5013502;28;20038;-74
2023/09/11 04:16:05;;;;;;;0.13;0.13;;;;;;;15.24;77.43;97472.31;5008217;28;20038;-73
2023/09/11 04:18:34;;;;;;;0.13;0.13;;;;;;;15.30;77.12;97469.53;5007276;28;20038;-73
2023/09/11 04:21:02;;;;;;;0.10;0.10;;;;;;;15.30;77.21;97466.84;5011140;28;20061;-73
2023/09/11 04:23:30;;;;;;;0.15;0.15;;;;;;;15.29;77.56;97459.81;5010756;28;20070;-73
2023/09/11 04:26:00;;;;;;;0.20;0.20;;;;;;;15.39;76.74;97462.78;5003357;28;20506;-73
2023/09/11 04:28:27;;;;;;;0.17;0.17;;;;;;;15.47;76.47;97458.94;5008496;28;20537;-73
2023/09/11 04:30:55;;;;;;;0.20;0.20;;;;;;;15.38;76.51;97455.75;5007149;28;20061;-73
2023/09/11 04:33:23;;;;;;;0.10;0.10;;;;;;;15.24;77.20;97453.50;5011739;28;20109;-74
2023/09/11 04:35:53;;;;;;;0.17;0.17;;;;;;;15.22;77.30;97451.03;5011913;28;20619;-73
2023/09/11 04:38:20;;;;;;;0.15;0.15;;;;;;;15.36;76.68;97454.34;5012256;28;20089;-73
2023/09/11 04:40:48;;;;;;;0.03;0.03;;;;;;;15.19;77.28;97459.53;5011494;28;20065;-73
2023/09/11 04:43:16;;;;;;;0.13;0.13;;;;;;;15.29;76.88;97464.38;5011364;28;20041;-72
2023/09/11 04:45:44;;;;;;;0.22;0.22;;;;;;;15.18;77.68;97457.06;5011263;28;21844;-73
2023/09/11 04:48:11;;;;;;;0.10;0.03;;;;;;;15.19;77.37;97461.41;5011864;28;20049;-73
2023/09/11 04:50:39;;;;;;;0.17;0.13;;;;;;;15.22;77.61;97463.66;5012617;28;20049;-73
2023/09/11 04:53:08;;;;;;;0.10;0.10;;;;;;;15.26;77.19;97464.84;5012560;28;20045;-73
2023/09/11 04:55:36;;;;;;;0.10;0.10;;;;;;;15.32;76.94;97456.66;5011676;28;20049;-73
2023/09/11 04:58:04;;;;;;;0.22;0.22;;;;;;;15.19;77.54;97467.59;5012073;28;20068;-73
2023/09/11 05:00:33;;;;;;;0.10;0.10;;;;;;;15.38;76.37;97460.31;5013528;28;20042;-73
2023/09/11 05:03:01;;;;;;;0.40;0.20;;;;;;;15.34;76.11;97457.28;5013602;28;20037;-73
2023/09/11 05:05:30;;;;;;;0.10;0.10;;;;;;;15.35;76.02;97463.47;5013228;28;20048;-73
2023/09/11 05:07:58;;;;;;;0.13;0.13;;;;;;;15.28;77.07;97460.84;5005986;28;20417;-73
2023/09/11 05:10:27;;;;;;;0.22;0.22;;;;;;;15.34;76.60;97459.97;5012315;28;20038;-73
2023/09/11 05:12:55;;;;;;;0.13;0.13;;;;;;;15.33;76.54;97458.31;5011839;28;20536;-73
2023/09/11 05:15:23;;;;;;;0.03;0.03;;;;;;;15.43;76.41;97460.44;5011984;28;20428;-73
2023/09/11 05:17:51;;;;;;;0.22;0.22;;;;;;;15.46;76.61;97464.56;5011590;28;20453;-74
2023/09/11 05:20:19;;;;;;;0.20;0.20;;;;;;;15.32;76.84;97471.97;5021438;28;20042;-73
2023/09/11 05:22:47;;;;;;;0.20;0.20;;;;;;;15.30;76.50;97466.84;5012989;28;20056;-73
2023/09/11 05:25:14;;;;;;;0.20;0.20;;;;;;;15.39;76.03;97475.41;5012108;28;20124;-73
2023/09/11 05:27:44;;;;;;;0.20;0.20;;;;;;;15.23;76.34;97471.47;5012898;28;20050;-73
2023/09/11 05:30:14;;;;;;;0.13;0.13;;;;;;;15.36;75.84;97484.75;5009060;28;20077;-73
2023/09/11 05:32:41;;;;;;;0.15;0.15;;;;;;;15.41;75.90;97473.31;5012520;28;20030;-73
2023/09/11 05:35:09;;;;;;;0.10;0.10;;;;;;;15.38;76.53;97479.13;5012275;28;20046;-73
2023/09/11 05:37:37;;;;;;;0.13;0.13;;;;;;;15.43;76.50;97480.09;5012477;28;20042;-73
2023/09/11 05:40:07;;;;;;;0.22;0.22;;;;;;;15.51;76.21;97487.03;5012545;28;20141;-73
2023/09/11 05:42:34;;;;;;;0.30;0.30;;;;;;;15.52;76.09;97477.09;5007705;28;20046;-73
2023/09/11 05:45:04;;;;;;;0.10;0.10;;;;;;;15.49;76.58;97478.34;5012142;28;20053;-73
2023/09/11 05:47:31;;;;;;;0.15;0.15;;;;;;;15.59;76.19;97472.44;5012006;28;20038;-73
2023/09/11 05:50:00;;;;;;;0.20;0.20;;;;;;;15.61;76.02;97475.75;5011794;28;20046;-73
2023/09/11 05:52:28;;;;;;;0.20;0.20;;;;;;;15.75;75.63;97478.03;5012030;28;20462;-73
2023/09/11 05:54:55;;;;;;;0.22;0.22;;;;;;;15.79;75.25;97478.34;5011918;28;20069;-73
2023/09/11 05:57:23;;;;;;;0.22;0.22;;;;;;;15.89;75.19;97475.09;5012076;28;20116;-73
2023/09/11 05:59:51;;;;;;;0.13;0.13;;;;;;;15.99;74.94;97475.34;5011677;28;20049;-73
2023/09/11 06:02:20;;;;;;;0.13;0.13;;;;;;;16.01;75.04;97471.38;5011855;28;20042;-73
2023/09/11 06:04:48;;;;;;;0.13;0.13;;;;;;;16.09;74.77;97473.72;5011346;28;20501;-73
2023/09/11 06:07:16;;;;;;;0.22;0.22;;;;;;;16.17;74.69;97477.16;5012184;28;20042;-73
2023/09/11 06:09:44;;;;;;;0.13;0.13;;;;;;;16.17;74.68;97475.28;5011674;28;20108;-73
2023/09/11 06:12:11;;;;;;;0.20;0.20;;;;;;;16.21;74.74;97475.63;5003870;28;20151;-73
2023/09/11 06:14:39;;;;;;;0.22;0.22;;;;;;;16.30;74.68;97472.34;5011423;28;20048;-73
2023/09/11 06:17:07;;;;;;;0.20;0.20;;;;;;;16.45;73.82;97478.09;5010440;28;20053;-73
2023/09/11 06:19:36;;;;;;;0.20;0.20;;;;;;;16.36;74.94;97468.72;5011133;28;20440;-73
2023/09/11 06:22:04;;;;;;;0.13;0.13;;;;;;;16.46;75.21;97473.53;5009803;28;20052;-72
2023/09/11 06:24:31;;;;;;;0.10;0.10;;;;;;;16.53;75.64;97476.91;4997576;28;20065;-73
2023/09/11 06:27:03;;;;;;;0.13;0.13;;;;;;;16.62;75.17;97472.00;5006085;28;20119;-73
2023/09/11 06:29:31;;;;;;;0.10;0.10;;;;;;;16.75;75.24;97475.28;5011388;28;20042;-73
2023/09/11 06:31:59;;;;;;;0.13;0.13;;;;;;;16.84;75.03;97478.44;5008251;28;20092;-73
2023/09/11 06:34:29;;;;;;;0.40;0.20;;;;;;;16.91;75.09;97475.63;5011058;28;20112;-73
2023/09/11 06:36:59;;;;;;;0.10;0.10;;;;;;;17.04;75.04;97468.06;5010927;28;20052;-73
2023/09/11 06:39:28;;;;;;;0.13;0.13;;;;;;;17.12;74.87;97470.41;5011322;28;20417;-73
2023/09/11 06:41:56;;;;;;;0.13;0.13;;;;;;;17.28;74.47;97473.38;5016287;28;20042;-73
2023/09/11 06:44:23;;;;;;;0.15;0.15;;;;;;;17.35;74.07;97463.25;5010915;28;20045;-73
2023/09/11 06:46:51;;;;;;;0.13;0.13;;;;;;;17.51;73.67;97474.13;5010942;28;20069;-73
2023/09/11 06:49:21;;;;;;;0.10;0.10;;;;;;;17.56;72.88;97476.91;5012324;28;20049;-73
2023/09/11 06:51:49;;;;;;;0.20;0.20;;;;;;;17.66;72.51;97470.06;5012056;28;20041;-72
2023/09/11 06:54:18;;;;;;;0.10;0.10;;;;;;;17.75;72.37;97469.47;5010766;28;20045;-73
2023/09/11 06:56:46;;;;;;;0.10;0.10;;;;;;;17.83;72.62;97460.16;5010961;28;20112;-73
2023/09/11 06:59:13;;;;;;;0.15;0.15;;;;;;;17.96;72.26;97471.44;5011085;28;20045;-75
2023/09/11 07:01:41;;;;;;;0.10;0.10;;;;;;;18.06;72.30;97465.41;5010885;28;20052;-73
2023/09/11 07:04:11;;;;;;;0.20;0.20;;;;;;;18.12;71.91;97467.09;5010724;28;20053;-73
2023/09/11 07:06:39;;;;;;;0.13;0.13;;;;;;;18.23;71.77;97457.28;5010770;28;20034;-73
2023/09/11 07:09:06;;;;;;;0.13;0.13;;;;;;;18.31;71.70;97462.25;5010968;28;20046;-74
2023/09/11 07:11:36;;;;;;;0.10;0.10;;;;;;;18.40;71.23;97457.25;5010994;28;20058;-74
2023/09/11 07:14:05;;;;;;;0.15;0.15;;;;;;;18.50;71.11;97462.81;5010615;28;20114;-73
2023/09/11 07:16:33;;;;;;;0.20;0.20;;;;;;;18.60;71.32;97462.97;5010717;28;20382;-73
2023/09/11 07:19:00;;;;;;;0.20;0.20;;;;;;;18.73;71.18;97461.81;5010641;28;20060;-72
2023/09/11 07:21:28;;;;;;;0.10;0.10;;;;;;;18.81;71.05;97455.97;5003194;28;20501;-72
2023/09/11 07:23:56;;;;;;;0.13;0.13;;;;;;;18.87;70.77;97457.69;4998936;28;20433;-73
2023/09/11 07:26:24;;;;;;;0.10;0.10;;;;;;;18.95;70.84;97455.34;4999643;28;20116;-73
2023/09/11 07:28:58;;;;;;;0.20;0.20;;;;;;;19.03;70.79;97446.78;5006257;28;20056;-72
2023/09/11 07:31:25;;;;;;;0.13;0.13;;;;;;;19.14;70.55;97450.44;5012808;28;20435;-73
2023/09/11 07:33:53;;;;;;;0.10;0.10;;;;;;;19.25;70.27;97448.66;5013735;28;20404;-73
2023/09/11 07:36:21;;;;;;;0.13;0.13;;;;;;;19.38;69.91;97446.41;5014644;28;20052;-74
2023/09/11 07:38:49;;;;;;;0.08;0.08;;;;;;;19.50;69.61;97451.69;5014497;28;20061;-73
2023/09/11 07:41:18;;;;;;;0.13;0.13;;;;;;;19.62;69.22;97449.63;5007138;28;20045;-75
2023/09/11 07:43:49;;;;;;;0.10;0.10;;;;;;;19.76;68.49;97442.72;5013491;28;20049;-74
2023/09/11 07:46:19;;;;;;;0.10;0.10;;;;;;;19.90;68.30;97445.84;5006763;28;20112;-75
2023/09/11 07:48:47;;;;;;;0.10;0.10;;;;;;;20.05;68.02;97448.66;5014291;28;20424;-75
2023/09/11 07:51:15;;;;;;;0.30;0.10;;;;;;;20.17;67.55;97448.50;5006570;28;20436;-74
2023/09/11 07:53:43;;;;;;;0.13;0.13;;;;;;;20.28;67.49;97450.22;5014144;28;20533;-75
2023/09/11 07:56:11;;;;;;;0.13;0.13;;;;;;;20.41;67.12;97455.22;5029857;23;20095;-72
2023/09/11 07:58:39;;;;;;;0.13;0.13;;;;;;;20.55;67.15;97446.63;5035940;28;20053;-72
2023/09/11 08:01:07;;;;;;;0.20;0.20;;;;;;;20.79;66.97;97445.94;5028667;28;20087;-72
2023/09/11 08:03:37;;;;;;;0.13;0.13;;;;;;;20.92;66.56;97436.53;5027778;28;20060;-70
2023/09/11 08:06:05;;;;;;;0.00;0.00;;;;;;;20.96;66.05;97442.25;5027802;28;20052;-71
2023/09/11 08:08:33;;;;;;;0.10;0.10;;;;;;;21.04;66.67;97441.72;5028591;28;20106;-71
2023/09/11 08:11:12;;;;;;;0.20;0.20;;;;;;;21.10;66.03;97443.38;5034177;28;20117;-72
2023/09/11 08:13:39;;;;;;;0.20;0.20;;;;;;;21.21;65.73;97437.75;5029251;28;20048;-72
2023/09/11 08:16:07;;;;;;;0.05;0.05;;;;;;;21.34;65.57;97436.44;5033811;28;20120;-72
2023/09/11 08:18:35;;;;;;;0.20;0.20;;;;;;;21.48;66.02;97436.75;5033786;28;20037;-72
2023/09/11 08:21:04;;;;;;;0.10;0.10;;;;;;;21.59;65.10;97433.75;5034268;28;20060;-72
2023/09/11 08:23:32;;;;;;;0.13;0.13;;;;;;;21.70;64.31;97439.25;5033444;28;20084;-71
2023/09/11 08:26:01;;;;;;;0.10;0.10;;;;;;;21.81;64.43;97440.84;5033449;28;20412;-71
2023/09/11 08:28:29;;;;;;;0.10;0.10;;;;;;;21.96;64.39;97433.53;5033689;28;20488;-72
2023/09/11 08:30:57;;;;;;;0.13;0.13;;;;;;;22.05;64.21;97439.28;5023939;28;20049;-72
2023/09/11 08:33:25;;;;;;;0.05;0.05;;;;;;;22.10;64.16;97436.56;5032979;28;20140;-71
2023/09/11 08:36:05;;;;;;;0.10;0.10;;;;;;;22.17;63.93;97439.00;5022606;28;20508;-72
2023/09/11 08:38:33;;;;;;;0.10;0.03;;;;;;;22.24;64.40;97434.91;5032627;28;20079;-71
2023/09/11 08:41:01;;;;;;;0.10;0.10;;;;;;;22.31;64.16;97437.38;5033294;28;20052;-72
2023/09/11 08:43:28;;;;;;;0.10;0.10;;;;;;;22.42;64.12;97438.19;5026076;28;20113;-71
2023/09/11 08:45:56;;;;;;;0.03;0.03;;;;;;;22.50;63.71;97430.28;5030364;28;20042;-70
2023/09/11 08:48:29;;;;;;;0.10;0.10;;;;;;;22.60;63.91;97435.69;5033206;28;20037;-71
2023/09/11 08:50:58;;;;;;;0.20;0.10;;;;;;;22.68;63.64;97429.69;5032894;28;20049;-71
2023/09/11 08:53:27;;;;;;;0.03;0.03;;;;;;;22.81;63.66;97430.22;5032968;28;20120;-71
2023/09/11 08:55:56;;;;;;;0.10;0.10;;;;;;;22.94;63.23;97430.47;5032971;28;20136;-72
2023/09/11 08:58:25;;;;;;;0.10;0.10;;;;;;;23.18;62.66;97432.53;5033239;28;20112;-72
2023/09/11 09:00:53;;;;;;;0.20;0.20;;;;;;;23.24;61.86;97431.41;5032861;28;20045;-72
2023/09/11 09:03:21;;;;;;;0.20;0.20;;;;;;;23.26;61.75;97421.03;5033208;28;20109;-71
2023/09/11 09:05:49;;;;;;;0.13;0.13;;;;;;;23.32;61.77;97426.19;5034832;28;20120;-70
2023/09/11 09:08:19;;;;;;;0.03;0.03;;;;;;;23.36;61.14;97423.72;5034070;28;20041;-71
2023/09/11 09:10:48;;;;;;;0.10;0.10;;;;;;;23.45;60.48;97418.50;5033517;28;20072;-71
2023/09/11 09:13:16;;;;;;;0.10;0.10;;;;;;;23.53;60.48;97421.47;5032407;28;20045;-71
2023/09/11 09:15:44;;;;;;;0.10;0.10;;;;;;;23.61;60.73;97418.16;5032747;28;20427;-71
2023/09/11 09:18:12;;;;;;;0.15;0.15;;;;;;;23.77;60.38;97421.59;5021384;28;20512;-71
2023/09/11 09:20:40;;;;;;;0.10;0.03;;;;;;;23.89;59.52;97416.56;5030201;28;20038;-71
2023/09/11 09:23:08;;;;;;;0.10;0.10;;;;;;;24.03;58.39;97424.94;5032196;28;20045;-71
2023/09/11 09:25:35;;;;;;;0.10;0.10;;;;;;;24.05;58.25;97418.09;5026887;28;20038;-71
2023/09/11 09:28:05;;;;;;;0.05;0.05;;;;;;;24.22;57.79;97419.63;5030273;28;20110;-70
2023/09/11 09:30:33;;;;;;;0.08;0.08;;;;;;;24.26;57.37;97412.50;5032542;28;20048;-71
2023/09/11 09:33:03;;;;;;;0.10;0.10;;;;;;;24.27;57.03;97408.66;5032417;28;20129;-71
2023/09/11 09:35:32;;;;;;;0.10;0.10;;;;;;;24.32;56.63;97412.16;5032212;28;20128;-71
2023/09/11 09:38:01;;;;;;;0.10;0.10;;;;;;;24.41;57.93;97404.16;5015579;28;20136;-73
2023/09/11 09:40:33;;;;;;;0.05;0.05;;;;;;;24.53;57.37;97404.56;5032077;28;20164;-74
2023/09/11 09:43:03;;;;;;;0.05;0.05;;;;;;;24.62;56.56;97400.09;5031980;28;20389;-73
2023/09/11 09:45:34;;;;;;;0.10;0.10;;;;;;;24.74;56.08;97396.97;5032015;28;20440;-71
2023/09/11 09:48:05;;;;;;;0.08;0.08;;;;;;;24.88;55.27;97392.44;5031688;28;20515;-72
2023/09/11 09:50:51;;;;;;;0.10;0.10;;;;;;;24.95;53.70;97394.84;5032154;28;20055;-71
2023/09/11 09:53:25;;;;;;;0.10;0.10;;;;;;;24.97;54.05;97384.44;5023178;28;20092;-71
2023/09/11 09:55:55;;;;;;;0.03;0.03;;;;;;;25.04;54.70;97382.97;5031592;28;20089;-71
2023/09/11 09:58:27;;;;;;;0.00;0.00;;;;;;;25.20;53.88;97370.75;5030830;28;20099;-71
2023/09/11 10:01:01;;;;;;;0.50;0.50;;;;;;;25.30;53.87;97366.25;5031750;28;20187;-73
2023/09/11 10:03:37;;;;;;;0.10;0.10;;;;;;;25.47;52.60;97374.75;5024719;28;20121;-72
2023/09/11 10:06:07;;;;;;;0.20;0.20;;;;;;;25.68;50.11;97370.63;5031641;28;20091;-71
2023/09/11 10:08:36;;;;;;;0.03;0.03;;;;;;;25.84;48.04;97365.75;5025712;28;20124;-71
2023/09/11 10:11:03;;;;;;;0.00;0.00;;;;;;;25.98;47.97;97365.75;5024798;28;20405;-72
2023/09/11 10:13:32;;;;;;;0.00;0.00;;;;;;;26.10;47.77;97363.38;5021184;28;20052;-71
2023/09/11 10:16:04;;;;;;;0.00;0.00;;;;;;;26.23;46.62;97357.13;5030217;28;20064;-69
2023/09/11 10:18:34;;;;;;;0.00;0.00;;;;;;;26.42;46.24;97346.94;5033735;28;20030;-72
2023/09/11 10:21:02;;;;;;;0.08;0.08;;;;;;;26.50;45.89;97362.66;5031311;28;20566;-71
2023/09/11 10:23:30;;;;;;;0.03;0.03;;;;;;;26.60;45.60;97346.03;5032410;28;20071;-72
2023/09/11 10:26:00;;;;;;;0.08;0.00;;;;;;;26.72;45.17;97355.66;5031650;28;20469;-70
2023/09/11 10:28:33;;;;;;;0.08;0.08;;;;;;;26.94;44.51;97348.38;5032614;28;20045;-70
2023/09/11 10:31:08;;;;;;;0.10;0.10;;;;;;;27.14;43.92;97349.88;5025728;28;20052;-71
2023/09/11 10:33:38;;;;;;;0.00;0.00;;;;;;;27.42;42.83;97340.47;5031288;28;20052;-71
2023/09/11 10:36:11;;;;;;;0.10;0.10;;;;;;;27.31;43.47;97338.25;5031060;28;20056;-71
2023/09/11 10:38:39;;;;;;;0.00;0.00;;;;;;;27.53;43.58;97341.03;5031438;28;20045;-72
2023/09/11 10:41:09;;;;;;;0.08;0.08;;;;;;;27.78;43.32;97331.41;5031481;28;20042;-71
2023/09/11 10:43:36;;;;;;;0.10;0.10;;;;;;;27.89;42.45;97329.22;5031638;28;20052;-73
2023/09/11 10:46:32;;;;;;;0.03;0.00;;;;;;;28.02;42.21;97334.66;5030905;28;20073;-72
2023/09/11 10:49:01;;;;;;;0.00;0.00;;;;;;;28.19;41.71;97330.41;5030958;28;20112;-72
2023/09/11 10:51:29;;;;;;;0.00;0.00;;;;;;;28.37;41.19;97335.66;5026918;28;20121;-73
2023/09/11 10:53:57;;;;;;;0.10;0.10;;;;;;;28.57;40.98;97323.31;5025637;28;20041;-71
2023/09/11 10:56:24;;;;;;;0.10;0.10;;;;;;;28.75;40.63;97322.25;5030134;28;20125;-72
2023/09/11 10:58:52;;;;;;;0.10;0.10;;;;;;;28.78;39.50;97321.63;5031763;28;20044;-72
2023/09/11 11:01:20;;;;;;;0.03;0.03;;;;;;;28.87;40.06;97312.59;5022861;28;20120;-72
2023/09/11 11:03:53;;;;;;;0.10;0.10;;;;;;;28.87;40.21;97318.91;5030665;28;20389;-71
2023/09/11 11:06:23;;;;;;;0.00;0.00;;;;;;;28.72;41.12;97324.81;5033646;28;20045;-71
2023/09/11 11:08:51;;;;;;;0.10;0.10;;;;;;;28.87;40.66;97316.16;5035389;28;20408;-71
2023/09/11 11:11:22;;;;;;;0.10;0.10;;;;;;;29.18;39.43;97318.78;5034988;28;20484;-70
2023/09/11 11:14:12;;;;;;;0.10;0.00;;;;;;;29.35;39.33;97313.31;5036104;28;20072;-69
2023/09/11 11:16:41;;;;;;;0.10;0.00;;;;;;;29.67;39.06;97311.25;5034503;28;20072;-70
2023/09/11 11:19:24;;;;;;;0.00;0.00;;;;;;;29.79;39.44;97311.41;5035900;28;20069;-70
2023/09/11 11:21:52;;;;;;;0.00;0.00;;;;;;;29.91;38.10;97308.75;5034815;28;20507;-71
2023/09/11 11:24:23;;;;;;;0.00;0.00;;;;;;;29.77;38.27;97313.66;5034544;28;20057;-69
2023/09/11 11:26:51;;;;;;;0.03;0.03;;;;;;;30.05;38.11;97309.41;5029451;28;20057;-71
2023/09/11 11:29:19;;;;;;;0.13;0.03;;;;;;;30.13;36.96;97311.34;5023678;28;20100;-72
2023/09/11 11:31:47;;;;;;;0.00;0.00;;;;;;;29.84;37.66;97302.94;5027253;28;20049;-73
2023/09/11 11:34:18;;;;;;;0.03;0.03;;;;;;;29.93;38.08;97295.47;5034339;28;20111;-73
2023/09/11 11:36:46;;;;;;;0.10;0.08;;;;;;;30.28;37.46;97301.75;5031350;28;20045;-72
2023/09/11 11:39:14;;;;;;;0.00;0.00;;;;;;;30.44;36.81;97293.72;5034282;28;20080;-71
2023/09/11 11:41:41;;;;;;;0.00;0.00;;;;;;;30.21;36.99;97293.97;5034603;28;20046;-73